AirNav   Air Wisconsin Up To $57,000 Bonus
 
 942 users online  

82FD Lockheed Martin Heliport
Orlando, Florida, USA

GOING TO ORLANDO?


FAA INFORMATION EFFECTIVE 07 NOVEMBER 2019

Location

FAA Identifier: 82FD
Lat/Long: 28-26-48.4900N 081-27-03.6900W
28-26.808167N 081-27.061500W
28.4468028,-81.4510250
(estimated)
Elevation: 98 ft. / 30 m (estimated)
From city: 7 miles SW of ORLANDO, FL
Time zone: UTC -5 (UTC -4 during Daylight Saving Time)
Zip code: 32819

Heliport Operations

Heliport use: Private use. Permission required prior to landing
Activation date: 12/2015
Control tower: no
ARTCC: JACKSONVILLE CENTER
FSS: SAINT PETERSBURG FLIGHT SERVICE STATION
Attendance: IREG
Wind indicator: yes
Segmented circle: no

Heliport Communications

WX ASOS at MCO (8 nm E): PHONE 407-855-5235
WX ASOS at ORL (9 nm NE): PHONE 407-658-6753
WX AWOS-3PT at ISM (9 nm S): 128.775 (407-847-0533)

Nearby radio navigation aids

VOR radial/distance  VOR name  Freq  Var
ORLr227/8.4ORLANDO VORTAC112.2000E

Heliport Services

Runway Information

Helipad H1

Dimensions: 34 x 34 ft. / 10 x 10 m
Surface: asphalt
Runway edge lights: medium intensity
Traffic pattern: leftleft

Heliport Ownership and Management from official FAA records

Ownership: Privately-owned
Owner: LOCKHEED MARTIN CORPORATION
5600 SAND LAKE ROAD
ORLANDO, FL 32819-8907
Phone 407-356-5842
Manager: RICHARD FIELDS
5600 SAND LAKE ROAD, MAIL DROP 88
ORLANDO, FL 32819-8907
Phone 407-356-5842

Additional Remarks

FOR CD CTC ORLANDO APCH AT 407-852-7553.

Instrument Procedures

There are no published instrument procedures at 82FD.

Some nearby airports with instrument procedures:

KMCO - Orlando International Airport (8 nm E)
KORL - Executive Airport (9 nm NE)
KISM - Kissimmee Gateway Airport (9 nm S)
X04 - Orlando Apopka Airport (17 nm NW)
KSFB - Orlando Sanford International Airport (23 nm NE)
 
Loc | Ops | Rwys | IFR | FBO | Links
Com | Nav | Svcs | Stats | Notes
Aerial photo
No photo
 
Airport distance calculator
Flying to Lockheed Martin Heliport? Find the distance to fly.

From to 82FD

Sunrise and sunset
Times for 12-Nov-2019
 Local
(UTC-5)
 Zulu
(UTC)
Morning civil twilight06:2211:22
Sunrise06:4711:47
Sunset17:3322:33
Evening civil twilight17:5822:58

Current date and time
Zulu (UTC)  13-Nov-2019 01:45:05
Local (UTC-5)  12-Nov-2019 20:45:05
 
METAR
KMCO 
6nm E 
130053Z 28005KT 10SM FEW055 FEW150 BKN300 24/17 A2992 RMK AO2 SLP131 T02390167
KORL 
9nm NE 
130053Z 29006KT 10SM FEW065 24/17 A2992 RMK AO2 SLP136 T02390172
KISM 
10nm S 
130056Z 29004KT 10SM CLR 22/18 A2993 RMK AO2 SLP136 T02220183 PNO $
TAF
KMCO 
6nm E 
122054Z 1221/1324 23008KT P6SM SCT060 SCT250 FM122300 28007KT P6SM VCSH SCT040 BKN060 FM130200 33012KT P6SM VCSH SCT035 BKN060 FM131500 01015G21KT P6SM BKN060 BKN250 FM131700 02016G23KT P6SM SCT020 BKN030
KISM 
10nm S 
121745Z 1218/1318 24009KT P6SM FEW035 SCT250 FM122200 28007KT P6SM VCSH SCT040 BKN060 FM130200 34012KT P6SM VCSH SCT035 BKN060 FM131400 36014G21KT P6SM SCT020 BKN030
NOTAMs
Click for the latest NOTAMs
NOTAMs are issued by the DoD/FAA and will open in a separate window not controlled by AirNav.

 

 
 

Would you like to see your business listed on this page?

 If your business provides an interesting product or service to pilots, flight crews, aircraft, or users of the Lockheed Martin Heliport, you should consider listing it here.  To start the listing process, click on the button below
 
Add a business
 

Other Pages about Lockheed Martin Heliport

Update a link
 
Copyright © AirNav, LLC. All rights reserved. Privacy Policy  Contact